sensor_id;sensor_type;location;lat;lon;timestamp;pressure;altitude;pressure_sealevel;temperature;humidity
51687;BME280;37774;52.192;4.584;2023-04-25T00:02:21;101484.16;;;4.44;100.00
51687;BME280;37774;52.192;4.584;2023-04-25T00:05:07;101549.75;;;4.89;100.00
51687;BME280;37774;52.192;4.584;2023-04-25T00:07:53;101519.53;;;4.82;100.00
51687;BME280;37774;52.192;4.584;2023-04-25T00:10:39;101529.41;;;5.00;100.00
51687;BME280;37774;52.192;4.584;2023-04-25T00:13:25;101498.41;;;4.95;100.00
51687;BME280;37774;52.192;4.584;2023-04-25T00:16:10;101542.09;;;5.24;100.00
51687;BME280;37774;52.192;4.584;2023-04-25T00:18:58;101526.56;;;5.23;100.00
51687;BME280;37774;52.192;4.584;2023-04-25T00:21:44;101521.34;;;5.20;100.00
51687;BME280;37774;52.192;4.584;2023-04-25T00:24:29;101506.13;;;4.95;100.00
51687;BME280;37774;52.192;4.584;2023-04-25T00:27:16;101521.69;;;5.00;100.00
51687;BME280;37774;52.192;4.584;2023-04-25T00:30:01;101457.28;;;4.66;100.00
51687;BME280;37774;52.192;4.584;2023-04-25T00:32:47;101533.22;;;5.13;100.00
51687;BME280;37774;52.192;4.584;2023-04-25T00:35:34;101541.13;;;5.21;100.00
51687;BME280;37774;52.192;4.584;2023-04-25T00:38:19;101500.91;;;4.92;100.00
51687;BME280;37774;52.192;4.584;2023-04-25T00:41:06;101526.53;;;5.21;100.00
51687;BME280;37774;52.192;4.584;2023-04-25T00:43:54;101520.66;;;5.27;100.00
51687;BME280;37774;52.192;4.584;2023-04-25T00:46:39;101447.41;;;4.82;100.00
51687;BME280;37774;52.192;4.584;2023-04-25T00:49:25;101418.88;;;4.74;100.00
51687;BME280;37774;52.192;4.584;2023-04-25T00:52:11;101381.63;;;4.61;100.00
51687;BME280;37774;52.192;4.584;2023-04-25T00:54:56;101385.94;;;4.62;100.00
51687;BME280;37774;52.192;4.584;2023-04-25T00:57:42;101451.44;;;5.06;100.00
51687;BME280;37774;52.192;4.584;2023-04-25T01:00:29;101475.06;;;5.24;100.00
51687;BME280;37774;52.192;4.584;2023-04-25T01:03:15;101472.34;;;5.18;100.00
51687;BME280;37774;52.192;4.584;2023-04-25T01:06:01;101476.47;;;5.11;100.00
51687;BME280;37774;52.192;4.584;2023-04-25T01:08:47;101405.09;;;4.74;100.00
51687;BME280;37774;52.192;4.584;2023-04-25T01:11:32;101472.97;;;5.08;100.00
51687;BME280;37774;52.192;4.584;2023-04-25T01:14:18;101469.53;;;5.09;100.00
51687;BME280;37774;52.192;4.584;2023-04-25T01:17:05;101460.59;;;4.94;100.00
51687;BME280;37774;52.192;4.584;2023-04-25T01:19:51;101469.09;;;4.90;100.00
51687;BME280;37774;52.192;4.584;2023-04-25T01:22:38;101351.53;;;4.25;100.00
51687;BME280;37774;52.192;4.584;2023-04-25T01:25:23;101474.94;;;4.85;100.00
51687;BME280;37774;52.192;4.584;2023-04-25T01:28:08;101495.66;;;4.89;100.00
51687;BME280;37774;52.192;4.584;2023-04-25T01:30:54;101491.28;;;4.85;100.00
51687;BME280;37774;52.192;4.584;2023-04-25T01:33:40;101415.28;;;4.35;100.00
51687;BME280;37774;52.192;4.584;2023-04-25T01:36:25;101485.13;;;4.80;100.00
51687;BME280;37774;52.192;4.584;2023-04-25T01:39:12;101447.22;;;4.44;100.00
51687;BME280;37774;52.192;4.584;2023-04-25T01:41:59;101425.41;;;4.29;100.00
51687;BME280;37774;52.192;4.584;2023-04-25T01:44:45;101396.78;;;4.18;100.00
51687;BME280;37774;52.192;4.584;2023-04-25T01:47:30;101472.78;;;4.68;100.00
51687;BME280;37774;52.192;4.584;2023-04-25T01:50:17;101484.41;;;4.86;100.00
51687;BME280;37774;52.192;4.584;2023-04-25T01:53:04;101476.50;;;4.79;100.00
51687;BME280;37774;52.192;4.584;2023-04-25T01:55:50;101475.59;;;4.77;100.00
51687;BME280;37774;52.192;4.584;2023-04-25T01:58:36;101389.59;;;4.37;100.00
51687;BME280;37774;52.192;4.584;2023-04-25T02:01:21;101498.56;;;5.02;100.00
51687;BME280;37774;52.192;4.584;2023-04-25T02:04:07;101468.13;;;4.87;100.00
51687;BME280;37774;52.192;4.584;2023-04-25T02:06:52;101476.88;;;4.93;100.00
51687;BME280;37774;52.192;4.584;2023-04-25T02:09:38;101447.56;;;4.88;100.00
51687;BME280;37774;52.192;4.584;2023-04-25T02:12:24;101499.09;;;5.23;100.00
51687;BME280;37774;52.192;4.584;2023-04-25T02:15:11;101399.81;;;4.67;100.00
51687;BME280;37774;52.192;4.584;2023-04-25T02:17:56;101438.31;;;4.96;100.00
51687;BME280;37774;52.192;4.584;2023-04-25T02:20:43;101421.16;;;4.97;100.00
51687;BME280;37774;52.192;4.584;2023-04-25T02:23:29;101308.91;;;4.03;100.00
51687;BME280;37774;52.192;4.584;2023-04-25T02:26:14;101476.97;;;5.32;100.00
51687;BME280;37774;52.192;4.584;2023-04-25T02:29:01;101406.22;;;4.82;100.00
51687;BME280;37774;52.192;4.584;2023-04-25T02:31:47;101411.38;;;4.83;100.00
51687;BME280;37774;52.192;4.584;2023-04-25T02:34:32;101480.31;;;5.28;100.00
51687;BME280;37774;52.192;4.584;2023-04-25T02:37:17;101484.63;;;5.29;100.00
51687;BME280;37774;52.192;4.584;2023-04-25T02:40:04;101485.47;;;5.29;100.00
51687;BME280;37774;52.192;4.584;2023-04-25T02:42:49;101388.75;;;4.72;100.00
51687;BME280;37774;52.192;4.584;2023-04-25T02:45:36;101450.53;;;5.04;100.00
51687;BME280;37774;52.192;4.584;2023-04-25T02:48:22;101441.91;;;5.03;100.00
51687;BME280;37774;52.192;4.584;2023-04-25T02:51:07;101513.72;;;5.24;100.00
51687;BME280;37774;52.192;4.584;2023-04-25T02:53:52;101544.66;;;5.24;100.00
51687;BME280;37774;52.192;4.584;2023-04-25T02:56:38;101512.13;;;4.96;100.00
51687;BME280;37774;52.192;4.584;2023-04-25T02:59:23;101569.53;;;5.22;100.00
51687;BME280;37774;52.192;4.584;2023-04-25T03:02:10;101481.94;;;4.58;100.00
51687;BME280;37774;52.192;4.584;2023-04-25T03:04:56;101639.94;;;5.21;100.00
51687;BME280;37774;52.192;4.584;2023-04-25T03:07:41;101608.13;;;5.21;100.00
51687;BME280;37774;52.192;4.584;2023-04-25T03:10:28;101608.19;;;5.24;100.00
51687;BME280;37774;52.192;4.584;2023-04-25T03:13:13;101623.16;;;5.05;100.00
51687;BME280;37774;52.192;4.584;2023-04-25T03:15:59;101569.63;;;4.93;100.00
51687;BME280;37774;52.192;4.584;2023-04-25T03:18:46;101616.25;;;5.04;100.00
51687;BME280;37774;52.192;4.584;2023-04-25T03:21:32;101601.28;;;4.89;100.00
51687;BME280;37774;52.192;4.584;2023-04-25T03:24:17;101618.72;;;5.00;100.00
51687;BME280;37774;52.192;4.584;2023-04-25T03:27:03;101508.31;;;4.19;100.00
51687;BME280;37774;52.192;4.584;2023-04-25T03:29:48;101628.78;;;4.90;100.00
51687;BME280;37774;52.192;4.584;2023-04-25T03:32:34;101631.34;;;4.90;100.00
51687;BME280;37774;52.192;4.584;2023-04-25T03:35:21;101628.81;;;4.92;100.00
51687;BME280;37774;52.192;4.584;2023-04-25T03:38:07;101644.13;;;4.87;100.00
51687;BME280;37774;52.192;4.584;2023-04-25T03:40:53;101549.88;;;4.33;100.00
51687;BME280;37774;52.192;4.584;2023-04-25T03:43:39;101539.84;;;4.13;100.00
51687;BME280;37774;52.192;4.584;2023-04-25T03:46:25;101546.44;;;4.32;100.00
51687;BME280;37774;52.192;4.584;2023-04-25T03:49:10;101529.88;;;4.24;100.00
51687;BME280;37774;52.192;4.584;2023-04-25T03:51:57;101618.06;;;4.76;100.00
51687;BME280;37774;52.192;4.584;2023-04-25T03:54:43;101623.06;;;4.72;100.00
51687;BME280;37774;52.192;4.584;2023-04-25T03:57:28;101623.06;;;4.72;100.00
51687;BME280;37774;52.192;4.584;2023-04-25T04:00:14;101630.88;;;4.75;100.00
51687;BME280;37774;52.192;4.584;2023-04-25T04:03:00;101635.19;;;4.76;100.00
51687;BME280;37774;52.192;4.584;2023-04-25T04:05:45;101350.41;;;2.98;100.00
51687;BME280;37774;52.192;4.584;2023-04-25T04:08:32;101548.16;;;4.04;100.00
51687;BME280;37774;52.192;4.584;2023-04-25T04:11:18;101547.63;;;3.87;100.00
51687;BME280;37774;52.192;4.584;2023-04-25T04:14:04;101567.22;;;4.11;100.00
51687;BME280;37774;52.192;4.584;2023-04-25T04:16:50;101564.34;;;4.00;100.00
51687;BME280;37774;52.192;4.584;2023-04-25T04:19:36;101669.47;;;4.44;100.00
51687;BME280;37774;52.192;4.584;2023-04-25T04:22:22;101676.19;;;4.41;100.00
51687;BME280;37774;52.192;4.584;2023-04-25T04:25:09;101551.00;;;3.59;100.00
51687;BME280;37774;52.192;4.584;2023-04-25T04:27:55;101690.00;;;4.43;100.00
51687;BME280;37774;52.192;4.584;2023-04-25T04:30:41;101622.47;;;3.95;100.00
51687;BME280;37774;52.192;4.584;2023-04-25T04:33:29;101657.72;;;4.25;100.00
51687;BME280;37774;52.192;4.584;2023-04-25T04:36:15;101672.91;;;4.45;100.00
51687;BME280;37774;52.192;4.584;2023-04-25T04:39:05;101697.28;;;4.56;100.00
51687;BME280;37774;52.192;4.584;2023-04-25T04:41:52;101682.16;;;4.38;100.00
51687;BME280;37774;52.192;4.584;2023-04-25T04:44:37;101629.06;;;4.14;100.00
51687;BME280;37774;52.192;4.584;2023-04-25T04:47:22;101521.59;;;3.49;100.00
51687;BME280;37774;52.192;4.584;2023-04-25T04:50:09;101600.44;;;4.03;100.00
51687;BME280;37774;52.192;4.584;2023-04-25T04:52:55;101530.53;;;3.62;100.00
51687;BME280;37774;52.192;4.584;2023-04-25T04:55:40;101551.72;;;3.80;100.00
51687;BME280;37774;52.192;4.584;2023-04-25T04:58:28;101686.34;;;4.63;100.00
51687;BME280;37774;52.192;4.584;2023-04-25T05:01:14;101578.84;;;3.98;100.00
51687;BME280;37774;52.192;4.584;2023-04-25T05:04:00;101692.56;;;4.70;100.00
51687;BME280;37774;52.192;4.584;2023-04-25T05:06:46;101542.31;;;3.81;100.00
51687;BME280;37774;52.192;4.584;2023-04-25T05:09:31;101585.94;;;4.05;100.00
51687;BME280;37774;52.192;4.584;2023-04-25T05:12:17;101702.16;;;4.76;100.00
51687;BME280;37774;52.192;4.584;2023-04-25T05:15:05;101648.97;;;4.47;100.00
51687;BME280;37774;52.192;4.584;2023-04-25T05:17:50;101634.38;;;4.48;100.00
51687;BME280;37774;52.192;4.584;2023-04-25T05:20:35;101704.25;;;4.88;100.00
51687;BME280;37774;52.192;4.584;2023-04-25T05:23:21;101658.28;;;4.44;100.00
51687;BME280;37774;52.192;4.584;2023-04-25T05:26:07;101603.53;;;4.20;100.00
51687;BME280;37774;52.192;4.584;2023-04-25T05:28:57;101749.69;;;4.86;100.00
51687;BME280;37774;52.192;4.584;2023-04-25T05:31:44;101571.38;;;3.78;100.00
51687;BME280;37774;52.192;4.584;2023-04-25T05:34:29;101753.25;;;4.89;100.00
51687;BME280;37774;52.192;4.584;2023-04-25T05:37:15;101701.03;;;4.38;100.00
51687;BME280;37774;52.192;4.584;2023-04-25T05:40:00;101575.69;;;3.28;100.00
51687;BME280;37774;52.192;4.584;2023-04-25T05:42:50;101714.06;;;3.91;100.00
51687;BME280;37774;52.192;4.584;2023-04-25T05:45:35;101723.31;;;3.86;100.00
51687;BME280;37774;52.192;4.584;2023-04-25T05:48:22;101698.13;;;3.51;100.00
51687;BME280;37774;52.192;4.584;2023-04-25T05:51:08;101828.19;;;4.19;100.00
51687;BME280;37774;52.192;4.584;2023-04-25T05:53:53;101794.72;;;3.93;100.00
51687;BME280;37774;52.192;4.584;2023-04-25T05:56:39;101809.13;;;4.14;100.00
51687;BME280;37774;52.192;4.584;2023-04-25T05:59:24;101864.59;;;4.56;100.00
51687;BME280;37774;52.192;4.584;2023-04-25T06:02:09;101849.84;;;4.50;100.00
51687;BME280;37774;52.192;4.584;2023-04-25T06:04:56;101878.34;;;4.82;100.00
51687;BME280;37774;52.192;4.584;2023-04-25T06:07:42;101831.41;;;4.64;100.00
51687;BME280;37774;52.192;4.584;2023-04-25T06:10:27;101821.41;;;4.73;100.00
51687;BME280;37774;52.192;4.584;2023-04-25T06:13:14;101839.69;;;4.81;100.00
51687;BME280;37774;52.192;4.584;2023-04-25T06:15:59;101803.53;;;4.78;100.00
51687;BME280;37774;52.192;4.584;2023-04-25T06:18:45;101872.16;;;5.31;100.00
51687;BME280;37774;52.192;4.584;2023-04-25T06:21:32;101867.53;;;5.49;100.00
51687;BME280;37774;52.192;4.584;2023-04-25T06:24:17;101845.41;;;5.56;100.00
51687;BME280;37774;52.192;4.584;2023-04-25T06:27:06;101482.78;;;3.41;100.00
51687;BME280;37774;52.192;4.584;2023-04-25T06:29:51;101743.53;;;5.40;100.00
51687;BME280;37774;52.192;4.584;2023-04-25T06:32:37;101763.88;;;5.93;100.00
51687;BME280;37774;52.192;4.584;2023-04-25T06:35:22;101735.09;;;6.10;100.00
51687;BME280;37774;52.192;4.584;2023-04-25T06:38:09;101688.16;;;6.25;100.00
51687;BME280;37774;52.192;4.584;2023-04-25T06:40:54;101421.53;;;4.77;100.00
51687;BME280;37774;52.192;4.584;2023-04-25T06:43:40;101595.94;;;5.82;100.00
51687;BME280;37774;52.192;4.584;2023-04-25T06:46:26;101680.81;;;6.42;100.00
51687;BME280;37774;52.192;4.584;2023-04-25T06:49:12;101418.25;;;4.83;100.00
51687;BME280;37774;52.192;4.584;2023-04-25T06:51:57;101579.72;;;5.87;100.00
51687;BME280;37774;52.192;4.584;2023-04-25T06:54:44;101511.50;;;5.38;100.00
51687;BME280;37774;52.192;4.584;2023-04-25T06:57:29;101606.75;;;6.03;100.00
51687;BME280;37774;52.192;4.584;2023-04-25T07:00:16;101498.31;;;5.61;100.00
51687;BME280;37774;52.192;4.584;2023-04-25T07:03:02;101627.53;;;6.46;100.00
51687;BME280;37774;52.192;4.584;2023-04-25T07:05:47;101645.50;;;6.81;100.00
51687;BME280;37774;52.192;4.584;2023-04-25T07:08:33;101475.44;;;5.77;100.00
51687;BME280;37774;52.192;4.584;2023-04-25T07:11:20;101548.78;;;6.26;100.00
51687;BME280;37774;52.192;4.584;2023-04-25T07:14:05;101332.03;;;5.05;100.00
51687;BME280;37774;52.192;4.584;2023-04-25T07:16:51;101408.44;;;5.40;100.00
51687;BME280;37774;52.192;4.584;2023-04-25T07:19:36;101569.09;;;6.51;100.00
51687;BME280;37774;52.192;4.584;2023-04-25T07:22:23;101222.34;;;4.38;100.00
51687;BME280;37774;52.192;4.584;2023-04-25T07:25:10;101348.41;;;5.07;100.00
51687;BME280;37774;52.192;4.584;2023-04-25T07:27:57;101668.75;;;6.81;100.00
51687;BME280;37774;52.192;4.584;2023-04-25T07:30:42;101551.81;;;6.47;100.00
51687;BME280;37774;52.192;4.584;2023-04-25T07:33:28;101635.56;;;7.01;100.00
51687;BME280;37774;52.192;4.584;2023-04-25T07:36:14;101572.75;;;6.61;100.00
51687;BME280;37774;52.192;4.584;2023-04-25T07:39:00;101625.03;;;6.90;100.00
51687;BME280;37774;52.192;4.584;2023-04-25T07:41:45;101639.41;;;7.20;100.00
51687;BME280;37774;52.192;4.584;2023-04-25T07:44:32;101429.78;;;6.12;100.00
51687;BME280;37774;52.192;4.584;2023-04-25T07:47:22;101529.84;;;6.67;100.00
51687;BME280;37774;52.192;4.584;2023-04-25T07:50:08;101582.97;;;6.99;100.00
51687;BME280;37774;52.192;4.584;2023-04-25T07:52:55;101522.59;;;6.94;100.00
51687;BME280;37774;52.192;4.584;2023-04-25T07:55:40;101552.03;;;7.02;100.00
51687;BME280;37774;52.192;4.584;2023-04-25T07:58:26;101622.53;;;7.41;100.00
51687;BME280;37774;52.192;4.584;2023-04-25T08:01:13;101525.59;;;7.17;100.00
51687;BME280;37774;52.192;4.584;2023-04-25T08:03:59;101444.44;;;7.06;100.00
51687;BME280;37774;52.192;4.584;2023-04-25T08:06:44;101455.16;;;7.30;100.00
51687;BME280;37774;52.192;4.584;2023-04-25T08:09:30;101587.09;;;7.87;100.00
51687;BME280;37774;52.192;4.584;2023-04-25T08:12:18;101534.41;;;7.28;100.00
51687;BME280;37774;52.192;4.584;2023-04-25T08:15:05;101574.25;;;7.94;100.00
51687;BME280;37774;52.192;4.584;2023-04-25T08:17:52;101409.34;;;6.69;100.00
51687;BME280;37774;52.192;4.584;2023-04-25T08:20:38;101654.06;;;8.83;100.00
51687;BME280;37774;52.192;4.584;2023-04-25T08:23:24;101656.63;;;8.78;100.00
51687;BME280;37774;52.192;4.584;2023-04-25T08:26:10;101665.63;;;8.43;100.00
51687;BME280;37774;52.192;4.584;2023-04-25T08:28:55;101581.00;;;7.84;100.00
51687;BME280;37774;52.192;4.584;2023-04-25T08:31:44;101468.59;;;7.08;100.00
51687;BME280;37774;52.192;4.584;2023-04-25T08:34:31;101434.09;;;7.06;100.00
51687;BME280;37774;52.192;4.584;2023-04-25T08:37:16;101578.53;;;7.39;100.00
51687;BME280;37774;52.192;4.584;2023-04-25T08:40:05;101570.38;;;7.16;100.00
51687;BME280;37774;52.192;4.584;2023-04-25T08:42:50;101697.53;;;8.42;100.00
51687;BME280;37774;52.192;4.584;2023-04-25T08:45:39;101707.44;;;8.68;100.00
51687;BME280;37774;52.192;4.584;2023-04-25T08:48:27;101649.81;;;8.26;100.00
51687;BME280;37774;52.192;4.584;2023-04-25T08:51:15;101765.31;;;7.67;100.00
51687;BME280;37774;52.192;4.584;2023-04-25T08:54:08;101798.31;;;7.38;100.00
51687;BME280;37774;52.192;4.584;2023-04-25T08:56:56;101733.72;;;6.60;100.00
51687;BME280;37774;52.192;4.584;2023-04-25T08:59:42;101727.78;;;6.27;100.00
51687;BME280;37774;52.192;4.584;2023-04-25T09:02:29;101721.69;;;6.60;100.00
51687;BME280;37774;52.192;4.584;2023-04-25T09:05:14;101816.63;;;7.07;100.00
51687;BME280;37774;52.192;4.584;2023-04-25T09:08:01;101697.09;;;6.39;100.00
51687;BME280;37774;52.192;4.584;2023-04-25T09:10:47;101822.25;;;7.27;100.00
51687;BME280;37774;52.192;4.584;2023-04-25T09:13:32;101766.38;;;6.94;100.00
51687;BME280;37774;52.192;4.584;2023-04-25T09:16:18;101855.66;;;7.58;100.00
51687;BME280;37774;52.192;4.584;2023-04-25T09:19:05;101821.09;;;7.14;100.00
51687;BME280;37774;52.192;4.584;2023-04-25T09:21:53;101872.66;;;7.47;100.00
51687;BME280;37774;52.192;4.584;2023-04-25T09:24:41;101860.84;;;7.59;100.00
51687;BME280;37774;52.192;4.584;2023-04-25T09:27:27;101891.56;;;7.85;100.00
51687;BME280;37774;52.192;4.584;2023-04-25T09:30:15;101798.84;;;7.21;100.00
51687;BME280;37774;52.192;4.584;2023-04-25T09:33:05;101883.66;;;7.78;100.00
51687;BME280;37774;52.192;4.584;2023-04-25T09:35:51;101876.50;;;8.07;100.00
51687;BME280;37774;52.192;4.584;2023-04-25T09:38:40;101841.28;;;8.17;100.00
51687;BME280;37774;52.192;4.584;2023-04-25T09:41:27;101865.38;;;8.13;100.00
51687;BME280;37774;52.192;4.584;2023-04-25T09:44:13;101848.81;;;8.51;100.00
51687;BME280;37774;52.192;4.584;2023-04-25T09:46:58;101839.84;;;8.82;100.00
51687;BME280;37774;52.192;4.584;2023-04-25T09:49:44;101694.91;;;8.41;100.00
51687;BME280;37774;52.192;4.584;2023-04-25T09:52:29;101825.91;;;9.37;100.00
51687;BME280;37774;52.192;4.584;2023-04-25T09:55:14;101775.88;;;9.46;100.00
51687;BME280;37774;52.192;4.584;2023-04-25T09:58:04;101752.81;;;9.69;100.00
51687;BME280;37774;52.192;4.584;2023-04-25T10:00:50;101626.22;;;9.43;100.00
51687;BME280;37774;52.192;4.584;2023-04-25T10:03:38;101606.22;;;9.28;100.00
51687;BME280;37774;52.192;4.584;2023-04-25T10:06:25;101788.41;;;9.83;100.00
51687;BME280;37774;52.192;4.584;2023-04-25T10:09:12;101682.53;;;8.80;100.00
51687;BME280;37774;52.192;4.584;2023-04-25T10:11:58;101788.78;;;9.40;100.00
51687;BME280;37774;52.192;4.584;2023-04-25T10:14:46;101684.22;;;9.47;100.00
51687;BME280;37774;52.192;4.584;2023-04-25T10:17:32;101649.25;;;9.11;100.00
51687;BME280;37774;52.192;4.584;2023-04-25T10:20:19;101789.03;;;9.60;100.00
51687;BME280;37774;52.192;4.584;2023-04-25T10:23:11;101755.19;;;9.52;100.00
51687;BME280;37774;52.192;4.584;2023-04-25T10:25:58;101493.16;;;7.93;100.00
51687;BME280;37774;52.192;4.584;2023-04-25T10:29:00;101798.06;;;9.98;100.00
51687;BME280;37774;52.192;4.584;2023-04-25T10:31:47;101616.91;;;8.81;100.00
51687;BME280;37774;52.192;4.584;2023-04-25T10:34:40;101775.00;;;10.26;100.00
51687;BME280;37774;52.192;4.584;2023-04-25T10:37:25;101714.34;;;10.20;100.00
51687;BME280;37774;52.192;4.584;2023-04-25T10:40:12;101722.47;;;10.62;100.00
51687;BME280;37774;52.192;4.584;2023-04-25T10:43:33;101786.22;;;10.21;100.00
51687;BME280;37774;52.192;4.584;2023-04-25T10:46:21;101551.88;;;8.59;100.00
51687;BME280;37774;52.192;4.584;2023-04-25T10:49:08;101725.84;;;9.56;100.00
51687;BME280;37774;52.192;4.584;2023-04-25T10:51:59;101779.31;;;10.23;100.00
51687;BME280;37774;52.192;4.584;2023-04-25T10:54:56;101733.28;;;10.08;100.00
51687;BME280;37774;52.192;4.584;2023-04-25T10:57:42;101775.41;;;10.78;100.00
51687;BME280;37774;52.192;4.584;2023-04-25T11:00:30;101777.25;;;10.95;100.00
51687;BME280;37774;52.192;4.584;2023-04-25T11:03:21;101752.13;;;10.95;100.00
51687;BME280;37774;52.192;4.584;2023-04-25T11:06:16;101695.38;;;10.34;100.00
51687;BME280;37774;52.192;4.584;2023-04-25T11:09:10;101763.63;;;10.16;100.00
51687;BME280;37774;52.192;4.584;2023-04-25T11:11:58;101783.50;;;10.09;100.00
51687;BME280;37774;52.192;4.584;2023-04-25T11:14:43;101736.16;;;10.41;100.00
51687;BME280;37774;52.192;4.584;2023-04-25T11:17:30;101676.19;;;10.13;100.00
51687;BME280;37774;52.192;4.584;2023-04-25T11:20:15;101772.88;;;10.88;100.00
51687;BME280;37774;52.192;4.584;2023-04-25T11:23:02;101645.03;;;10.13;100.00
51687;BME280;37774;52.192;4.584;2023-04-25T11:25:49;101769.00;;;10.37;100.00
51687;BME280;37774;52.192;4.584;2023-04-25T11:28:35;101782.47;;;11.01;100.00
51687;BME280;37774;52.192;4.584;2023-04-25T11:31:20;101779.03;;;11.01;100.00
51687;BME280;37774;52.192;4.584;2023-04-25T11:34:06;101751.03;;;10.61;100.00
51687;BME280;37774;52.192;4.584;2023-04-25T11:36:52;101779.03;;;11.04;100.00
51687;BME280;37774;52.192;4.584;2023-04-25T11:39:43;101741.38;;;10.41;100.00
51687;BME280;37774;52.192;4.584;2023-04-25T11:42:30;101729.09;;;10.28;100.00
51687;BME280;37774;52.192;4.584;2023-04-25T11:45:15;101799.66;;;10.77;100.00
51687;BME280;37774;52.192;4.584;2023-04-25T11:48:02;101744.00;;;10.44;100.00
51687;BME280;37774;52.192;4.584;2023-04-25T11:50:48;101766.00;;;11.02;100.00
51687;BME280;37774;52.192;4.584;2023-04-25T11:53:34;101817.63;;;10.46;100.00
51687;BME280;37774;52.192;4.584;2023-04-25T11:56:22;101845.50;;;10.63;100.00
51687;BME280;37774;52.192;4.584;2023-04-25T11:59:07;101778.09;;;9.90;100.00
51687;BME280;37774;52.192;4.584;2023-04-25T12:01:53;101726.19;;;9.92;100.00
51687;BME280;37774;52.192;4.584;2023-04-25T12:04:40;101758.50;;;9.39;100.00
51687;BME280;37774;52.192;4.584;2023-04-25T12:07:28;101814.56;;;10.03;100.00
51687;BME280;37774;52.192;4.584;2023-04-25T12:10:16;101689.44;;;9.50;100.00
51687;BME280;37774;52.192;4.584;2023-04-25T12:13:18;101742.06;;;10.25;100.00
51687;BME280;37774;52.192;4.584;2023-04-25T12:16:03;101712.81;;;9.53;100.00
51687;BME280;37774;52.192;4.584;2023-04-25T12:18:51;101771.41;;;9.34;100.00
51687;BME280;37774;52.192;4.584;2023-04-25T12:21:37;101804.69;;;9.66;100.00
51687;BME280;37774;52.192;4.584;2023-04-25T12:24:23;101791.66;;;10.46;100.00
51687;BME280;37774;52.192;4.584;2023-04-25T12:27:10;101789.91;;;10.45;100.00
51687;BME280;37774;52.192;4.584;2023-04-25T12:29:57;101855.56;;;10.33;100.00
51687;BME280;37774;52.192;4.584;2023-04-25T12:32:42;101856.41;;;9.52;100.00
51687;BME280;37774;52.192;4.584;2023-04-25T12:35:28;101809.78;;;8.95;100.00
51687;BME280;37774;52.192;4.584;2023-04-25T12:38:20;101890.22;;;9.57;100.00
51687;BME280;37774;52.192;4.584;2023-04-25T12:41:06;101787.06;;;9.42;100.00
51687;BME280;37774;52.192;4.584;2023-04-25T12:43:52;101810.47;;;9.46;100.00
51687;BME280;37774;52.192;4.584;2023-04-25T12:46:39;101878.00;;;10.25;100.00
51687;BME280;37774;52.192;4.584;2023-04-25T12:49:25;101803.06;;;9.77;100.00
51687;BME280;37774;52.192;4.584;2023-04-25T12:52:10;101826.69;;;10.04;100.00
51687;BME280;37774;52.192;4.584;2023-04-25T12:54:56;101886.97;;;9.75;100.00
51687;BME280;37774;52.192;4.584;2023-04-25T12:57:41;101860.22;;;8.62;100.00
51687;BME280;37774;52.192;4.584;2023-04-25T13:00:27;101866.38;;;8.19;100.00
51687;BME280;37774;52.192;4.584;2023-04-25T13:03:14;101865.34;;;8.11;100.00
51687;BME280;37774;52.192;4.584;2023-04-25T13:06:00;101948.00;;;8.46;100.00
51687;BME280;37774;52.192;4.584;2023-04-25T13:08:45;101887.66;;;8.04;100.00
51687;BME280;37774;52.192;4.584;2023-04-25T13:11:31;101833.59;;;7.77;100.00
51687;BME280;37774;52.192;4.584;2023-04-25T13:14:17;101790.28;;;7.67;100.00
51687;BME280;37774;52.192;4.584;2023-04-25T13:17:02;101913.47;;;8.95;100.00
51687;BME280;37774;52.192;4.584;2023-04-25T13:19:50;101856.78;;;8.61;100.00
51687;BME280;37774;52.192;4.584;2023-04-25T13:22:35;101898.91;;;9.02;100.00
51687;BME280;37774;52.192;4.584;2023-04-25T13:25:21;101897.28;;;9.10;100.00
51687;BME280;37774;52.192;4.584;2023-04-25T13:28:07;101875.66;;;9.06;100.00
51687;BME280;37774;52.192;4.584;2023-04-25T13:30:52;101873.63;;;9.47;100.00
51687;BME280;37774;52.192;4.584;2023-04-25T13:33:37;101877.75;;;10.02;100.00
51687;BME280;37774;52.192;4.584;2023-04-25T13:36:24;101789.84;;;9.57;100.00
51687;BME280;37774;52.192;4.584;2023-04-25T13:39:10;101869.63;;;9.72;100.00
51687;BME280;37774;52.192;4.584;2023-04-25T13:41:56;101830.41;;;9.49;100.00
51687;BME280;37774;52.192;4.584;2023-04-25T13:44:41;101840.13;;;9.65;100.00
51687;BME280;37774;52.192;4.584;2023-04-25T13:47:27;101852.31;;;10.48;100.00
51687;BME280;37774;52.192;4.584;2023-04-25T13:50:13;101891.78;;;11.10;100.00
51687;BME280;37774;52.192;4.584;2023-04-25T13:53:01;101762.63;;;10.03;100.00
51687;BME280;37774;52.192;4.584;2023-04-25T13:55:46;101825.06;;;10.09;100.00
51687;BME280;37774;52.192;4.584;2023-04-25T13:58:32;101894.78;;;10.54;100.00
51687;BME280;37774;52.192;4.584;2023-04-25T14:01:17;101891.47;;;10.70;100.00
51687;BME280;37774;52.192;4.584;2023-04-25T14:04:04;101861.97;;;10.65;100.00
51687;BME280;37774;52.192;4.584;2023-04-25T14:06:50;101896.22;;;11.25;100.00
51687;BME280;37774;52.192;4.584;2023-04-25T14:09:36;101901.00;;;10.68;100.00
51687;BME280;37774;52.192;4.584;2023-04-25T14:12:22;101908.84;;;10.74;100.00
51687;BME280;37774;52.192;4.584;2023-04-25T14:15:08;101718.78;;;9.43;100.00
51687;BME280;37774;52.192;4.584;2023-04-25T14:17:55;101907.03;;;10.65;100.00
51687;BME280;37774;52.192;4.584;2023-04-25T14:20:40;101901.25;;;11.01;100.00
51687;BME280;37774;52.192;4.584;2023-04-25T14:23:25;101847.16;;;9.76;100.00
51687;BME280;37774;52.192;4.584;2023-04-25T14:26:12;101908.31;;;10.23;100.00
51687;BME280;37774;52.192;4.584;2023-04-25T14:28:57;101855.94;;;9.87;100.00